West Elizabeth, PA (15088)

5:48 AM EST on December 21, 2014 (GMT -0500)
Jefferson Hills | Change Station
CLOSE
Current Station
Personal Weather Station
Location: Clairton, PA
Elevation: 919 ft
Nearby Weather Stations

Elev 919 ft 40.29 °N, 79.91 °W | Updated 0 second ago

Overcast
Overcast
28.9 °F
Feels Like 29 °F
N
0.0
Wind Variable Wind from South
Gusts 0.0 mph

Today
High -- | Low -- °F
--% Chance of Precip.
Yesterday
High -- | Low -- °F
Precip. -- in
7:38 AM 4:56 PM
Waning Crescent, 1% visible
Pressure 30.32 in
Visibility 9.0 miles
Clouds Scattered Clouds 3000 ft
Overcast 5500 ft
Windchill 29 °F
Dew Point 22 °F
Humidity 74%
Rainfall 0.00 in
Snow Depth Not available.
UV 0.0 out of 12
Pollen .10 out of 12
Air Quality Not available.
Flu Activity Not available.
METAR KAGC 210953Z 29003KT 9SM SCT030 OVC055 M02/M08 A3026 RMK AO2 SLP266 T10221078

More Conditions Fewer Conditions

Pressure 30.32 in
Visibility 9.0 miles
Clouds Scattered Clouds 3000 ft
Overcast 5500 ft
Windchill 29 °F
Dew Point 22 °F
Humidity 74%
Rainfall 0.00 in
Snow Depth Not available.
UV 0.0 out of 12
Pollen .10 out of 12
Air Quality Not available.
Flu Activity Not available.
METAR KAGC 210953Z 29003KT 9SM SCT030 OVC055 M02/M08 A3026 RMK AO2 SLP266 T10221078

More Conditions Fewer Conditions

10-Day Weather Forecast

Almanac

Astronomy

Dec. 21, 2014 Rise Set
Actual Time
Civil Twilight
Nautical Twilight
Astronomical Twilight
Moon
Length of Visible Light
Length of Day
Tomorrow will be .
, % of the Moon is Illuminated

Today's Extremes

State Highs State Lows

Community

WunderPhotos

Upload Photos

1,779,367 photos uploaded!

WunderBlogs® & News

Nearby

Air Quality

  Air Quality AQ Index Pollutant
Not available.

Snow Depth

Station Depth Elevation

Earthquake Activity

City Distance Mag. Time & Date
Minimum magnitude displayed is 2.5.

Coastal Water Temperatures

Place Temperature

Nearby Weather Stations